Terminal Aerodrome Forecast
Issued by NWS

Home | Current Version | Previous Version | Graphics & Text | Print | Product List | Glossary On
Versions: 1 2 3 4 5 6 7 8 9 10 11 12 13 14 15 16 17 18 19 20 21 22 23 24 25 26
000
FTUS43 KTOP 231200 AAA
TAFFOE
TAF AMD
KFOE 231248Z 2313/2412 19006KT 4SM BR OVC022
     FM231600 23009KT P6SM BKN025
     FM232300 20006KT P6SM SCT030=

USA.gov is the U.S. government's official web portal to all federal, state and local government web resources and services.